sensor_id;sensor_type;location;lat;lon;timestamp;P1;durP1;ratioP1;P2;durP2;ratioP2
2928;SDS011;1474;51.460;7.150;2023-07-29T00:01:18;2.25;;;1.30;;
2928;SDS011;1474;51.460;7.150;2023-07-29T00:03:44;2.03;;;1.58;;
2928;SDS011;1474;51.460;7.150;2023-07-29T00:06:09;2.13;;;1.80;;
2928;SDS011;1474;51.460;7.150;2023-07-29T00:08:35;1.73;;;1.60;;
2928;SDS011;1474;51.460;7.150;2023-07-29T00:11:01;2.50;;;1.83;;
2928;SDS011;1474;51.460;7.150;2023-07-29T00:13:27;2.70;;;1.90;;
2928;SDS011;1474;51.460;7.150;2023-07-29T00:15:54;3.47;;;2.25;;
2928;SDS011;1474;51.460;7.150;2023-07-29T00:18:21;4.32;;;2.10;;
2928;SDS011;1474;51.460;7.150;2023-07-29T00:20:52;4.78;;;2.63;;
2928;SDS011;1474;51.460;7.150;2023-07-29T00:23:18;4.25;;;2.75;;
2928;SDS011;1474;51.460;7.150;2023-07-29T00:25:44;5.38;;;2.42;;
2928;SDS011;1474;51.460;7.150;2023-07-29T00:28:11;3.78;;;2.80;;
2928;SDS011;1474;51.460;7.150;2023-07-29T00:30:38;2.58;;;2.30;;
2928;SDS011;1474;51.460;7.150;2023-07-29T00:33:03;4.93;;;2.90;;
2928;SDS011;1474;51.460;7.150;2023-07-29T00:35:29;2.83;;;2.45;;
2928;SDS011;1474;51.460;7.150;2023-07-29T00:37:55;2.60;;;2.17;;
2928;SDS011;1474;51.460;7.150;2023-07-29T00:40:21;6.10;;;3.33;;
2928;SDS011;1474;51.460;7.150;2023-07-29T00:42:48;5.20;;;2.60;;
2928;SDS011;1474;51.460;7.150;2023-07-29T00:45:15;3.17;;;2.30;;
2928;SDS011;1474;51.460;7.150;2023-07-29T00:47:44;2.63;;;2.20;;
2928;SDS011;1474;51.460;7.150;2023-07-29T00:50:11;3.03;;;2.40;;
2928;SDS011;1474;51.460;7.150;2023-07-29T00:52:40;2.22;;;2.03;;
2928;SDS011;1474;51.460;7.150;2023-07-29T00:55:06;2.78;;;2.22;;
2928;SDS011;1474;51.460;7.150;2023-07-29T00:57:33;3.03;;;2.10;;
2928;SDS011;1474;51.460;7.150;2023-07-29T01:00:00;2.00;;;1.80;;
2928;SDS011;1474;51.460;7.150;2023-07-29T01:02:28;3.42;;;2.63;;
2928;SDS011;1474;51.460;7.150;2023-07-29T01:04:55;2.30;;;2.00;;
2928;SDS011;1474;51.460;7.150;2023-07-29T01:13:31;3.05;;;2.25;;
2928;SDS011;1474;51.460;7.150;2023-07-29T01:16:20;3.97;;;2.20;;
2928;SDS011;1474;51.460;7.150;2023-07-29T01:18:55;3.33;;;2.15;;
2928;SDS011;1474;51.460;7.150;2023-07-29T01:21:23;2.53;;;2.33;;
2928;SDS011;1474;51.460;7.150;2023-07-29T01:23:52;2.90;;;2.33;;
2928;SDS011;1474;51.460;7.150;2023-07-29T01:26:18;3.50;;;2.28;;
2928;SDS011;1474;51.460;7.150;2023-07-29T01:28:44;3.25;;;2.33;;
2928;SDS011;1474;51.460;7.150;2023-07-29T01:31:13;2.53;;;2.20;;
2928;SDS011;1474;51.460;7.150;2023-07-29T01:33:58;3.13;;;2.30;;
2928;SDS011;1474;51.460;7.150;2023-07-29T01:36:40;2.13;;;1.93;;
2928;SDS011;1474;51.460;7.150;2023-07-29T01:39:11;2.47;;;2.00;;
2928;SDS011;1474;51.460;7.150;2023-07-29T01:41:37;2.80;;;1.90;;
2928;SDS011;1474;51.460;7.150;2023-07-29T01:44:05;2.22;;;1.80;;
2928;SDS011;1474;51.460;7.150;2023-07-29T01:46:33;2.20;;;1.67;;
2928;SDS011;1474;51.460;7.150;2023-07-29T01:48:59;5.75;;;2.30;;
2928;SDS011;1474;51.460;7.150;2023-07-29T01:51:25;2.03;;;1.83;;
2928;SDS011;1474;51.460;7.150;2023-07-29T01:53:51;2.00;;;1.80;;
2928;SDS011;1474;51.460;7.150;2023-07-29T01:56:17;2.20;;;2.00;;
2928;SDS011;1474;51.460;7.150;2023-07-29T01:58:42;4.57;;;1.95;;
2928;SDS011;1474;51.460;7.150;2023-07-29T02:01:08;1.70;;;1.60;;
2928;SDS011;1474;51.460;7.150;2023-07-29T02:03:34;1.75;;;1.58;;
2928;SDS011;1474;51.460;7.150;2023-07-29T02:06:00;2.30;;;2.10;;
2928;SDS011;1474;51.460;7.150;2023-07-29T02:08:26;1.80;;;1.70;;
2928;SDS011;1474;51.460;7.150;2023-07-29T02:10:52;2.65;;;1.92;;
2928;SDS011;1474;51.460;7.150;2023-07-29T02:13:18;2.33;;;2.03;;
2928;SDS011;1474;51.460;7.150;2023-07-29T02:15:44;3.88;;;2.45;;
2928;SDS011;1474;51.460;7.150;2023-07-29T02:18:10;3.83;;;2.28;;
2928;SDS011;1474;51.460;7.150;2023-07-29T02:20:35;2.92;;;1.83;;
2928;SDS011;1474;51.460;7.150;2023-07-29T02:23:01;2.85;;;1.90;;
2928;SDS011;1474;51.460;7.150;2023-07-29T02:25:27;3.95;;;2.17;;
2928;SDS011;1474;51.460;7.150;2023-07-29T02:27:53;3.88;;;1.92;;
2928;SDS011;1474;51.460;7.150;2023-07-29T02:30:20;3.38;;;2.17;;
2928;SDS011;1474;51.460;7.150;2023-07-29T02:32:48;2.43;;;1.43;;
2928;SDS011;1474;51.460;7.150;2023-07-29T02:35:14;1.90;;;1.70;;
2928;SDS011;1474;51.460;7.150;2023-07-29T02:37:40;1.75;;;1.65;;
2928;SDS011;1474;51.460;7.150;2023-07-29T02:40:06;1.98;;;1.73;;
2928;SDS011;1474;51.460;7.150;2023-07-29T02:42:32;1.60;;;1.50;;
2928;SDS011;1474;51.460;7.150;2023-07-29T02:44:58;3.65;;;1.65;;
2928;SDS011;1474;51.460;7.150;2023-07-29T02:47:24;2.00;;;1.80;;
2928;SDS011;1474;51.460;7.150;2023-07-29T02:49:56;2.15;;;1.65;;
2928;SDS011;1474;51.460;7.150;2023-07-29T02:52:22;1.70;;;1.58;;
2928;SDS011;1474;51.460;7.150;2023-07-29T02:54:47;2.00;;;1.80;;
2928;SDS011;1474;51.460;7.150;2023-07-29T02:57:14;6.28;;;2.63;;
2928;SDS011;1474;51.460;7.150;2023-07-29T02:59:40;4.00;;;1.58;;
2928;SDS011;1474;51.460;7.150;2023-07-29T03:02:08;3.70;;;1.88;;
2928;SDS011;1474;51.460;7.150;2023-07-29T03:04:34;3.05;;;1.65;;
2928;SDS011;1474;51.460;7.150;2023-07-29T03:07:00;2.28;;;1.70;;
2928;SDS011;1474;51.460;7.150;2023-07-29T03:09:26;1.98;;;1.75;;
2928;SDS011;1474;51.460;7.150;2023-07-29T03:11:52;7.10;;;1.95;;
2928;SDS011;1474;51.460;7.150;2023-07-29T03:14:19;2.25;;;2.05;;
2928;SDS011;1474;51.460;7.150;2023-07-29T03:16:46;4.28;;;2.10;;
2928;SDS011;1474;51.460;7.150;2023-07-29T03:19:12;2.17;;;1.98;;
2928;SDS011;1474;51.460;7.150;2023-07-29T03:21:40;2.15;;;1.98;;
2928;SDS011;1474;51.460;7.150;2023-07-29T03:24:06;3.00;;;1.92;;
2928;SDS011;1474;51.460;7.150;2023-07-29T03:26:32;3.05;;;2.00;;
2928;SDS011;1474;51.460;7.150;2023-07-29T03:28:58;4.47;;;2.28;;
2928;SDS011;1474;51.460;7.150;2023-07-29T03:31:24;2.70;;;1.90;;
2928;SDS011;1474;51.460;7.150;2023-07-29T03:33:50;3.25;;;2.00;;
2928;SDS011;1474;51.460;7.150;2023-07-29T03:36:15;1.70;;;1.60;;
2928;SDS011;1474;51.460;7.150;2023-07-29T03:38:41;3.22;;;1.90;;
2928;SDS011;1474;51.460;7.150;2023-07-29T03:41:09;3.45;;;2.00;;
2928;SDS011;1474;51.460;7.150;2023-07-29T03:43:36;2.90;;;2.17;;
2928;SDS011;1474;51.460;7.150;2023-07-29T03:46:01;3.55;;;2.38;;
2928;SDS011;1474;51.460;7.150;2023-07-29T03:48:28;2.35;;;1.90;;
2928;SDS011;1474;51.460;7.150;2023-07-29T03:50:54;2.67;;;1.75;;
2928;SDS011;1474;51.460;7.150;2023-07-29T03:53:22;1.73;;;1.63;;
2928;SDS011;1474;51.460;7.150;2023-07-29T03:55:48;2.67;;;1.90;;
2928;SDS011;1474;51.460;7.150;2023-07-29T03:58:15;2.83;;;1.95;;
2928;SDS011;1474;51.460;7.150;2023-07-29T04:00:41;2.97;;;2.08;;
2928;SDS011;1474;51.460;7.150;2023-07-29T04:03:08;2.40;;;2.20;;
2928;SDS011;1474;51.460;7.150;2023-07-29T04:05:34;3.25;;;2.90;;
2928;SDS011;1474;51.460;7.150;2023-07-29T04:08:00;2.83;;;1.80;;
2928;SDS011;1474;51.460;7.150;2023-07-29T04:10:28;3.30;;;2.92;;
2928;SDS011;1474;51.460;7.150;2023-07-29T04:13:06;3.28;;;2.50;;
2928;SDS011;1474;51.460;7.150;2023-07-29T04:15:32;3.42;;;2.70;;
2928;SDS011;1474;51.460;7.150;2023-07-29T04:17:57;3.00;;;2.58;;
2928;SDS011;1474;51.460;7.150;2023-07-29T04:20:23;4.32;;;2.72;;
2928;SDS011;1474;51.460;7.150;2023-07-29T04:22:49;3.60;;;2.60;;
2928;SDS011;1474;51.460;7.150;2023-07-29T04:25:15;3.10;;;2.80;;
2928;SDS011;1474;51.460;7.150;2023-07-29T04:27:41;2.40;;;2.20;;
2928;SDS011;1474;51.460;7.150;2023-07-29T04:30:07;4.20;;;2.17;;
2928;SDS011;1474;51.460;7.150;2023-07-29T04:32:36;4.38;;;2.95;;
2928;SDS011;1474;51.460;7.150;2023-07-29T04:35:02;2.85;;;2.35;;
2928;SDS011;1474;51.460;7.150;2023-07-29T04:37:28;3.58;;;2.75;;
2928;SDS011;1474;51.460;7.150;2023-07-29T04:39:54;3.92;;;3.22;;
2928;SDS011;1474;51.460;7.150;2023-07-29T04:42:20;3.67;;;3.33;;
2928;SDS011;1474;51.460;7.150;2023-07-29T04:44:45;4.35;;;3.70;;
2928;SDS011;1474;51.460;7.150;2023-07-29T04:47:11;4.72;;;3.70;;
2928;SDS011;1474;51.460;7.150;2023-07-29T04:49:37;4.78;;;3.80;;
2928;SDS011;1474;51.460;7.150;2023-07-29T04:52:06;5.35;;;3.88;;
2928;SDS011;1474;51.460;7.150;2023-07-29T04:54:32;4.60;;;3.22;;
2928;SDS011;1474;51.460;7.150;2023-07-29T04:56:58;4.50;;;3.25;;
2928;SDS011;1474;51.460;7.150;2023-07-29T04:59:24;5.03;;;3.25;;
2928;SDS011;1474;51.460;7.150;2023-07-29T05:01:50;5.10;;;3.50;;
2928;SDS011;1474;51.460;7.150;2023-07-29T05:04:16;3.25;;;2.95;;
2928;SDS011;1474;51.460;7.150;2023-07-29T05:06:42;4.80;;;3.25;;
2928;SDS011;1474;51.460;7.150;2023-07-29T05:09:18;5.50;;;3.80;;
2928;SDS011;1474;51.460;7.150;2023-07-29T05:11:47;6.72;;;4.38;;
2928;SDS011;1474;51.460;7.150;2023-07-29T05:14:14;7.00;;;4.28;;
2928;SDS011;1474;51.460;7.150;2023-07-29T05:16:41;6.32;;;4.95;;
2928;SDS011;1474;51.460;7.150;2023-07-29T05:19:08;5.88;;;5.28;;
2928;SDS011;1474;51.460;7.150;2023-07-29T05:21:34;10.98;;;6.60;;
2928;SDS011;1474;51.460;7.150;2023-07-29T05:24:00;7.07;;;6.05;;
2928;SDS011;1474;51.460;7.150;2023-07-29T05:26:26;7.25;;;6.32;;
2928;SDS011;1474;51.460;7.150;2023-07-29T05:28:52;7.50;;;6.15;;
2928;SDS011;1474;51.460;7.150;2023-07-29T05:31:17;9.57;;;6.95;;
2928;SDS011;1474;51.460;7.150;2023-07-29T05:33:47;6.82;;;6.05;;
2928;SDS011;1474;51.460;7.150;2023-07-29T05:36:14;7.82;;;7.03;;
2928;SDS011;1474;51.460;7.150;2023-07-29T05:38:40;8.65;;;7.53;;
2928;SDS011;1474;51.460;7.150;2023-07-29T05:41:06;8.63;;;7.55;;
2928;SDS011;1474;51.460;7.150;2023-07-29T05:43:32;10.02;;;7.90;;
2928;SDS011;1474;51.460;7.150;2023-07-29T05:45:58;8.90;;;8.00;;
2928;SDS011;1474;51.460;7.150;2023-07-29T05:48:24;9.70;;;8.70;;
2928;SDS011;1474;51.460;7.150;2023-07-29T05:50:50;8.80;;;7.78;;
2928;SDS011;1474;51.460;7.150;2023-07-29T05:53:16;9.27;;;7.97;;
2928;SDS011;1474;51.460;7.150;2023-07-29T05:55:41;9.77;;;8.73;;
2928;SDS011;1474;51.460;7.150;2023-07-29T05:58:07;12.18;;;8.55;;
2928;SDS011;1474;51.460;7.150;2023-07-29T06:00:34;22.20;;;7.97;;
2928;SDS011;1474;51.460;7.150;2023-07-29T06:03:00;8.70;;;7.60;;
2928;SDS011;1474;51.460;7.150;2023-07-29T06:05:26;7.47;;;5.95;;
2928;SDS011;1474;51.460;7.150;2023-07-29T06:07:52;8.05;;;5.70;;
2928;SDS011;1474;51.460;7.150;2023-07-29T06:10:17;6.32;;;5.72;;
2928;SDS011;1474;51.460;7.150;2023-07-29T06:12:44;6.65;;;5.80;;
2928;SDS011;1474;51.460;7.150;2023-07-29T06:15:11;6.85;;;4.32;;
2928;SDS011;1474;51.460;7.150;2023-07-29T06:17:37;5.38;;;4.10;;
2928;SDS011;1474;51.460;7.150;2023-07-29T06:20:04;11.40;;;3.40;;
2928;SDS011;1474;51.460;7.150;2023-07-29T06:22:31;4.13;;;3.42;;
2928;SDS011;1474;51.460;7.150;2023-07-29T06:24:57;4.40;;;4.00;;
2928;SDS011;1474;51.460;7.150;2023-07-29T06:27:23;4.72;;;2.75;;
2928;SDS011;1474;51.460;7.150;2023-07-29T06:29:50;3.65;;;3.00;;
2928;SDS011;1474;51.460;7.150;2023-07-29T06:32:16;4.57;;;2.60;;
2928;SDS011;1474;51.460;7.150;2023-07-29T06:34:42;2.35;;;2.15;;
2928;SDS011;1474;51.460;7.150;2023-07-29T06:37:08;2.25;;;1.85;;
2928;SDS011;1474;51.460;7.150;2023-07-29T06:39:33;1.90;;;1.40;;
2928;SDS011;1474;51.460;7.150;2023-07-29T06:41:59;2.42;;;1.70;;
2928;SDS011;1474;51.460;7.150;2023-07-29T06:44:25;3.17;;;1.55;;
2928;SDS011;1474;51.460;7.150;2023-07-29T06:46:51;1.80;;;1.30;;
2928;SDS011;1474;51.460;7.150;2023-07-29T06:49:16;1.90;;;1.67;;
2928;SDS011;1474;51.460;7.150;2023-07-29T06:51:42;3.10;;;2.00;;
2928;SDS011;1474;51.460;7.150;2023-07-29T06:54:08;2.50;;;1.60;;
2928;SDS011;1474;51.460;7.150;2023-07-29T06:56:34;1.90;;;1.20;;
2928;SDS011;1474;51.460;7.150;2023-07-29T06:58:59;2.58;;;1.70;;
2928;SDS011;1474;51.460;7.150;2023-07-29T07:01:25;2.08;;;1.55;;
2928;SDS011;1474;51.460;7.150;2023-07-29T07:03:51;2.38;;;1.60;;
2928;SDS011;1474;51.460;7.150;2023-07-29T07:06:19;4.28;;;1.40;;
2928;SDS011;1474;51.460;7.150;2023-07-29T07:08:49;2.40;;;1.27;;
2928;SDS011;1474;51.460;7.150;2023-07-29T07:11:16;2.97;;;1.60;;
2928;SDS011;1474;51.460;7.150;2023-07-29T07:13:43;2.40;;;1.42;;
2928;SDS011;1474;51.460;7.150;2023-07-29T07:16:09;2.55;;;1.40;;
2928;SDS011;1474;51.460;7.150;2023-07-29T07:18:35;2.60;;;1.92;;
2928;SDS011;1474;51.460;7.150;2023-07-29T07:21:01;2.45;;;1.85;;
2928;SDS011;1474;51.460;7.150;2023-07-29T07:23:27;2.55;;;1.33;;
2928;SDS011;1474;51.460;7.150;2023-07-29T07:25:52;1.80;;;1.50;;
2928;SDS011;1474;51.460;7.150;2023-07-29T07:28:18;2.65;;;1.58;;
2928;SDS011;1474;51.460;7.150;2023-07-29T07:30:44;2.85;;;1.90;;
2928;SDS011;1474;51.460;7.150;2023-07-29T07:33:10;3.65;;;2.03;;
2928;SDS011;1474;51.460;7.150;2023-07-29T07:35:36;3.38;;;1.63;;
2928;SDS011;1474;51.460;7.150;2023-07-29T07:38:01;4.40;;;2.30;;
2928;SDS011;1474;51.460;7.150;2023-07-29T07:40:29;3.35;;;2.10;;
2928;SDS011;1474;51.460;7.150;2023-07-29T07:42:56;3.28;;;1.80;;
2928;SDS011;1474;51.460;7.150;2023-07-29T07:45:22;2.45;;;1.58;;
2928;SDS011;1474;51.460;7.150;2023-07-29T07:47:47;3.10;;;1.83;;
2928;SDS011;1474;51.460;7.150;2023-07-29T07:50:13;2.10;;;1.38;;
2928;SDS011;1474;51.460;7.150;2023-07-29T07:52:39;1.48;;;1.10;;
2928;SDS011;1474;51.460;7.150;2023-07-29T07:55:05;1.88;;;1.40;;
2928;SDS011;1474;51.460;7.150;2023-07-29T07:57:31;2.40;;;1.48;;
2928;SDS011;1474;51.460;7.150;2023-07-29T07:59:57;3.30;;;1.70;;
2928;SDS011;1474;51.460;7.150;2023-07-29T08:02:23;1.73;;;1.33;;
2928;SDS011;1474;51.460;7.150;2023-07-29T08:04:49;2.53;;;1.50;;
2928;SDS011;1474;51.460;7.150;2023-07-29T08:07:14;2.65;;;1.50;;
2928;SDS011;1474;51.460;7.150;2023-07-29T08:09:40;1.45;;;1.15;;
2928;SDS011;1474;51.460;7.150;2023-07-29T08:12:06;1.90;;;1.10;;
2928;SDS011;1474;51.460;7.150;2023-07-29T08:14:32;2.35;;;1.40;;
2928;SDS011;1474;51.460;7.150;2023-07-29T08:16:58;1.88;;;1.42;;
2928;SDS011;1474;51.460;7.150;2023-07-29T08:19:24;2.22;;;1.33;;
2928;SDS011;1474;51.460;7.150;2023-07-29T08:21:50;2.15;;;1.70;;
2928;SDS011;1474;51.460;7.150;2023-07-29T08:24:15;2.17;;;1.58;;
2928;SDS011;1474;51.460;7.150;2023-07-29T08:26:41;1.85;;;1.50;;
2928;SDS011;1474;51.460;7.150;2023-07-29T08:29:07;2.05;;;1.85;;
2928;SDS011;1474;51.460;7.150;2023-07-29T08:31:33;4.95;;;1.80;;
2928;SDS011;1474;51.460;7.150;2023-07-29T08:33:59;2.20;;;1.73;;
2928;SDS011;1474;51.460;7.150;2023-07-29T08:36:26;1.58;;;1.30;;
2928;SDS011;1474;51.460;7.150;2023-07-29T08:38:51;1.50;;;1.02;;
2928;SDS011;1474;51.460;7.150;2023-07-29T08:41:36;2.70;;;1.25;;
2928;SDS011;1474;51.460;7.150;2023-07-29T08:46:55;1.55;;;1.20;;
2928;SDS011;1474;51.460;7.150;2023-07-29T08:49:22;3.28;;;2.00;;
2928;SDS011;1474;51.460;7.150;2023-07-29T08:51:49;3.13;;;1.70;;
2928;SDS011;1474;51.460;7.150;2023-07-29T08:54:18;2.40;;;2.17;;
2928;SDS011;1474;51.460;7.150;2023-07-29T08:56:44;2.97;;;2.45;;
2928;SDS011;1474;51.460;7.150;2023-07-29T08:59:10;3.00;;;2.20;;
2928;SDS011;1474;51.460;7.150;2023-07-29T09:01:39;3.50;;;2.28;;
2928;SDS011;1474;51.460;7.150;2023-07-29T09:04:06;3.97;;;2.30;;
2928;SDS011;1474;51.460;7.150;2023-07-29T09:06:32;2.33;;;2.13;;
2928;SDS011;1474;51.460;7.150;2023-07-29T09:09:00;2.00;;;1.77;;
2928;SDS011;1474;51.460;7.150;2023-07-29T09:11:27;1.50;;;1.40;;
2928;SDS011;1474;51.460;7.150;2023-07-29T09:13:54;1.30;;;1.15;;
2928;SDS011;1474;51.460;7.150;2023-07-29T09:16:20;1.25;;;1.13;;
2928;SDS011;1474;51.460;7.150;2023-07-29T09:18:50;1.15;;;1.05;;
2928;SDS011;1474;51.460;7.150;2023-07-29T09:23:47;3.53;;;0.93;;
2928;SDS011;1474;51.460;7.150;2023-07-29T09:26:21;1.83;;;1.00;;
2928;SDS011;1474;51.460;7.150;2023-07-29T09:28:52;2.50;;;0.80;;
2928;SDS011;1474;51.460;7.150;2023-07-29T09:31:22;1.77;;;0.98;;
2928;SDS011;1474;51.460;7.150;2023-07-29T09:33:57;0.77;;;0.60;;
2928;SDS011;1474;51.460;7.150;2023-07-29T09:36:25;0.80;;;0.65;;
2928;SDS011;1474;51.460;7.150;2023-07-29T09:38:52;2.53;;;0.70;;
2928;SDS011;1474;51.460;7.150;2023-07-29T09:41:25;0.60;;;0.60;;
2928;SDS011;1474;51.460;7.150;2023-07-29T09:43:56;2.83;;;0.95;;
2928;SDS011;1474;51.460;7.150;2023-07-29T09:46:25;3.25;;;1.20;;
2928;SDS011;1474;51.460;7.150;2023-07-29T09:49:01;1.45;;;0.90;;
2928;SDS011;1474;51.460;7.150;2023-07-29T09:51:29;5.15;;;2.88;;
2928;SDS011;1474;51.460;7.150;2023-07-29T09:53:55;2.25;;;1.13;;
2928;SDS011;1474;51.460;7.150;2023-07-29T09:56:25;2.72;;;1.27;;
2928;SDS011;1474;51.460;7.150;2023-07-29T09:58:52;1.40;;;1.20;;
2928;SDS011;1474;51.460;7.150;2023-07-29T10:01:22;2.83;;;1.33;;
2928;SDS011;1474;51.460;7.150;2023-07-29T10:03:48;1.80;;;1.20;;
2928;SDS011;1474;51.460;7.150;2023-07-29T10:06:15;1.30;;;1.05;;
2928;SDS011;1474;51.460;7.150;2023-07-29T10:08:42;0.80;;;0.80;;
2928;SDS011;1474;51.460;7.150;2023-07-29T10:11:09;0.80;;;0.60;;
2928;SDS011;1474;51.460;7.150;2023-07-29T10:13:36;1.30;;;0.85;;
2928;SDS011;1474;51.460;7.150;2023-07-29T10:16:03;2.50;;;0.90;;
2928;SDS011;1474;51.460;7.150;2023-07-29T10:18:30;1.48;;;0.73;;
2928;SDS011;1474;51.460;7.150;2023-07-29T10:20:58;2.00;;;0.90;;
2928;SDS011;1474;51.460;7.150;2023-07-29T10:23:26;1.30;;;0.70;;
2928;SDS011;1474;51.460;7.150;2023-07-29T10:26:07;0.70;;;0.60;;
2928;SDS011;1474;51.460;7.150;2023-07-29T10:28:38;1.15;;;0.73;;
2928;SDS011;1474;51.460;7.150;2023-07-29T10:31:08;1.50;;;0.75;;
2928;SDS011;1474;51.460;7.150;2023-07-29T10:33:34;2.00;;;0.70;;
2928;SDS011;1474;51.460;7.150;2023-07-29T10:36:01;0.93;;;0.82;;
2928;SDS011;1474;51.460;7.150;2023-07-29T10:38:29;1.55;;;0.90;;
2928;SDS011;1474;51.460;7.150;2023-07-29T10:40:56;1.25;;;1.15;;
2928;SDS011;1474;51.460;7.150;2023-07-29T10:43:26;1.50;;;1.40;;
2928;SDS011;1474;51.460;7.150;2023-07-29T10:45:55;1.52;;;0.90;;
2928;SDS011;1474;51.460;7.150;2023-07-29T10:56:42;2.03;;;0.98;;
2928;SDS011;1474;51.460;7.150;2023-07-29T11:01:41;1.70;;;0.80;;
2928;SDS011;1474;51.460;7.150;2023-07-29T11:04:45;1.10;;;0.75;;
2928;SDS011;1474;51.460;7.150;2023-07-29T11:17:36;0.82;;;0.80;;
2928;SDS011;1474;51.460;7.150;2023-07-29T11:20:14;0.80;;;0.80;;
2928;SDS011;1474;51.460;7.150;2023-07-29T11:22:42;1.00;;;0.55;;
2928;SDS011;1474;51.460;7.150;2023-07-29T11:25:09;0.82;;;0.82;;
2928;SDS011;1474;51.460;7.150;2023-07-29T11:27:38;1.63;;;1.00;;
2928;SDS011;1474;51.460;7.150;2023-07-29T11:30:05;0.75;;;0.70;;
2928;SDS011;1474;51.460;7.150;2023-07-29T11:32:35;1.35;;;0.80;;
2928;SDS011;1474;51.460;7.150;2023-07-29T11:35:04;1.02;;;0.60;;
2928;SDS011;1474;51.460;7.150;2023-07-29T11:37:33;1.08;;;0.70;;
2928;SDS011;1474;51.460;7.150;2023-07-29T11:39:59;1.38;;;0.80;;
2928;SDS011;1474;51.460;7.150;2023-07-29T11:42:27;1.38;;;0.90;;
2928;SDS011;1474;51.460;7.150;2023-07-29T11:44:56;1.05;;;0.70;;
2928;SDS011;1474;51.460;7.150;2023-07-29T11:47:25;2.35;;;0.90;;
2928;SDS011;1474;51.460;7.150;2023-07-29T11:49:51;2.15;;;0.90;;
2928;SDS011;1474;51.460;7.150;2023-07-29T11:52:17;1.02;;;0.68;;
2928;SDS011;1474;51.460;7.150;2023-07-29T11:54:45;1.33;;;0.80;;
2928;SDS011;1474;51.460;7.150;2023-07-29T11:59:41;1.13;;;0.80;;
2928;SDS011;1474;51.460;7.150;2023-07-29T12:02:11;1.60;;;1.00;;
2928;SDS011;1474;51.460;7.150;2023-07-29T12:04:40;0.90;;;0.77;;
2928;SDS011;1474;51.460;7.150;2023-07-29T12:07:09;3.90;;;1.00;;
2928;SDS011;1474;51.460;7.150;2023-07-29T12:09:35;1.80;;;0.77;;
2928;SDS011;1474;51.460;7.150;2023-07-29T12:12:03;3.20;;;1.17;;
2928;SDS011;1474;51.460;7.150;2023-07-29T12:14:30;2.05;;;0.80;;
2928;SDS011;1474;51.460;7.150;2023-07-29T12:16:56;1.33;;;0.77;;
2928;SDS011;1474;51.460;7.150;2023-07-29T12:22:04;1.45;;;0.80;;
2928;SDS011;1474;51.460;7.150;2023-07-29T12:24:33;0.80;;;0.70;;
2928;SDS011;1474;51.460;7.150;2023-07-29T12:27:01;2.08;;;1.15;;
2928;SDS011;1474;51.460;7.150;2023-07-29T12:29:28;1.90;;;0.90;;
2928;SDS011;1474;51.460;7.150;2023-07-29T12:32:00;1.45;;;1.00;;
2928;SDS011;1474;51.460;7.150;2023-07-29T12:34:29;1.52;;;1.25;;
2928;SDS011;1474;51.460;7.150;2023-07-29T12:36:57;1.70;;;1.20;;
2928;SDS011;1474;51.460;7.150;2023-07-29T12:39:27;1.10;;;0.77;;
2928;SDS011;1474;51.460;7.150;2023-07-29T12:41:56;2.28;;;1.15;;
2928;SDS011;1474;51.460;7.150;2023-07-29T12:44:24;1.52;;;1.00;;
2928;SDS011;1474;51.460;7.150;2023-07-29T12:46:55;1.45;;;0.98;;
2928;SDS011;1474;51.460;7.150;2023-07-29T12:49:21;0.88;;;0.70;;
2928;SDS011;1474;51.460;7.150;2023-07-29T12:51:47;2.15;;;1.10;;
2928;SDS011;1474;51.460;7.150;2023-07-29T12:54:13;1.10;;;0.90;;
2928;SDS011;1474;51.460;7.150;2023-07-29T12:56:39;0.90;;;0.75;;
2928;SDS011;1474;51.460;7.150;2023-07-29T12:59:05;1.95;;;0.80;;
2928;SDS011;1474;51.460;7.150;2023-07-29T13:01:31;1.65;;;0.90;;
2928;SDS011;1474;51.460;7.150;2023-07-29T13:03:57;1.58;;;0.80;;
2928;SDS011;1474;51.460;7.150;2023-07-29T13:06:23;1.33;;;0.80;;
2928;SDS011;1474;51.460;7.150;2023-07-29T13:08:49;3.28;;;1.13;;
2928;SDS011;1474;51.460;7.150;2023-07-29T13:11:15;1.67;;;1.00;;
2928;SDS011;1474;51.460;7.150;2023-07-29T13:13:41;1.35;;;0.95;;
2928;SDS011;1474;51.460;7.150;2023-07-29T13:16:09;1.10;;;0.95;;
2928;SDS011;1474;51.460;7.150;2023-07-29T13:18:34;1.30;;;1.05;;
2928;SDS011;1474;51.460;7.150;2023-07-29T13:21:00;1.80;;;1.15;;
2928;SDS011;1474;51.460;7.150;2023-07-29T13:23:26;1.75;;;0.95;;
2928;SDS011;1474;51.460;7.150;2023-07-29T13:25:54;2.22;;;0.80;;
2928;SDS011;1474;51.460;7.150;2023-07-29T13:28:21;3.45;;;2.00;;
2928;SDS011;1474;51.460;7.150;2023-07-29T13:30:47;3.10;;;1.08;;
2928;SDS011;1474;51.460;7.150;2023-07-29T13:33:13;1.27;;;1.10;;
2928;SDS011;1474;51.460;7.150;2023-07-29T13:35:39;3.00;;;1.00;;
2928;SDS011;1474;51.460;7.150;2023-07-29T13:38:04;1.35;;;0.88;;
2928;SDS011;1474;51.460;7.150;2023-07-29T13:40:31;1.42;;;0.90;;
2928;SDS011;1474;51.460;7.150;2023-07-29T13:42:57;1.65;;;1.20;;
2928;SDS011;1474;51.460;7.150;2023-07-29T13:45:23;1.67;;;0.80;;
2928;SDS011;1474;51.460;7.150;2023-07-29T13:47:49;4.20;;;1.20;;
2928;SDS011;1474;51.460;7.150;2023-07-29T13:50:15;1.73;;;1.15;;
2928;SDS011;1474;51.460;7.150;2023-07-29T13:52:43;1.50;;;1.10;;
2928;SDS011;1474;51.460;7.150;2023-07-29T13:55:09;1.48;;;1.33;;
2928;SDS011;1474;51.460;7.150;2023-07-29T13:57:36;1.80;;;1.10;;
2928;SDS011;1474;51.460;7.150;2023-07-29T14:00:04;7.60;;;1.48;;
2928;SDS011;1474;51.460;7.150;2023-07-29T14:02:34;1.65;;;1.02;;
2928;SDS011;1474;51.460;7.150;2023-07-29T14:05:00;1.35;;;1.15;;
2928;SDS011;1474;51.460;7.150;2023-07-29T14:07:26;2.38;;;0.90;;
2928;SDS011;1474;51.460;7.150;2023-07-29T14:09:52;1.90;;;1.17;;
2928;SDS011;1474;51.460;7.150;2023-07-29T14:12:18;2.65;;;1.35;;
2928;SDS011;1474;51.460;7.150;2023-07-29T14:14:43;2.72;;;1.35;;
2928;SDS011;1474;51.460;7.150;2023-07-29T14:17:09;1.90;;;1.10;;
2928;SDS011;1474;51.460;7.150;2023-07-29T14:19:35;2.55;;;1.17;;
2928;SDS011;1474;51.460;7.150;2023-07-29T14:22:04;3.75;;;1.63;;
2928;SDS011;1474;51.460;7.150;2023-07-29T14:24:30;2.35;;;1.52;;
2928;SDS011;1474;51.460;7.150;2023-07-29T14:26:56;2.15;;;1.30;;
2928;SDS011;1474;51.460;7.150;2023-07-29T14:29:22;3.38;;;2.00;;
2928;SDS011;1474;51.460;7.150;2023-07-29T14:31:48;3.53;;;1.70;;
2928;SDS011;1474;51.460;7.150;2023-07-29T14:34:14;3.35;;;1.50;;
2928;SDS011;1474;51.460;7.150;2023-07-29T14:36:39;1.67;;;1.25;;
2928;SDS011;1474;51.460;7.150;2023-07-29T14:39:05;2.67;;;1.13;;
2928;SDS011;1474;51.460;7.150;2023-07-29T14:41:32;2.55;;;1.20;;
2928;SDS011;1474;51.460;7.150;2023-07-29T14:43:58;2.28;;;1.13;;
2928;SDS011;1474;51.460;7.150;2023-07-29T14:46:24;3.13;;;1.42;;
2928;SDS011;1474;51.460;7.150;2023-07-29T14:48:50;1.90;;;1.17;;
2928;SDS011;1474;51.460;7.150;2023-07-29T14:51:15;1.88;;;0.90;;
2928;SDS011;1474;51.460;7.150;2023-07-29T14:53:41;1.60;;;0.60;;
2928;SDS011;1474;51.460;7.150;2023-07-29T14:56:08;1.70;;;0.85;;
2928;SDS011;1474;51.460;7.150;2023-07-29T14:58:34;1.58;;;0.80;;
2928;SDS011;1474;51.460;7.150;2023-07-29T15:00:59;2.65;;;1.25;;
2928;SDS011;1474;51.460;7.150;2023-07-29T15:03:25;1.30;;;1.02;;
2928;SDS011;1474;51.460;7.150;2023-07-29T15:05:51;2.47;;;1.20;;
2928;SDS011;1474;51.460;7.150;2023-07-29T15:08:17;1.30;;;0.95;;
2928;SDS011;1474;51.460;7.150;2023-07-29T15:10:48;2.13;;;1.40;;
2928;SDS011;1474;51.460;7.150;2023-07-29T15:13:15;1.27;;;1.17;;
2928;SDS011;1474;51.460;7.150;2023-07-29T15:15:44;1.63;;;1.40;;
2928;SDS011;1474;51.460;7.150;2023-07-29T15:18:10;2.25;;;1.52;;
2928;SDS011;1474;51.460;7.150;2023-07-29T15:20:36;2.38;;;2.00;;
2928;SDS011;1474;51.460;7.150;2023-07-29T15:23:02;2.35;;;1.80;;
2928;SDS011;1474;51.460;7.150;2023-07-29T15:25:28;2.40;;;2.20;;
2928;SDS011;1474;51.460;7.150;2023-07-29T15:27:53;2.33;;;1.95;;
2928;SDS011;1474;51.460;7.150;2023-07-29T15:30:19;1.88;;;1.77;;
2928;SDS011;1474;51.460;7.150;2023-07-29T15:32:45;2.25;;;2.05;;
2928;SDS011;1474;51.460;7.150;2023-07-29T15:35:11;3.47;;;2.30;;
2928;SDS011;1474;51.460;7.150;2023-07-29T15:37:37;3.30;;;2.13;;
2928;SDS011;1474;51.460;7.150;2023-07-29T15:40:04;3.10;;;2.13;;
2928;SDS011;1474;51.460;7.150;2023-07-29T15:42:31;5.68;;;2.45;;
2928;SDS011;1474;51.460;7.150;2023-07-29T15:44:57;3.63;;;2.60;;
2928;SDS011;1474;51.460;7.150;2023-07-29T15:47:23;2.30;;;2.10;;
2928;SDS011;1474;51.460;7.150;2023-07-29T15:49:49;4.15;;;1.98;;
2928;SDS011;1474;51.460;7.150;2023-07-29T15:52:15;2.60;;;1.80;;